createdAt,value
2023-02-15T00:00:16.030Z,102161.80
2023-02-15T00:03:44.201Z,102166.34
2023-02-15T00:07:13.398Z,102171.59
2023-02-15T00:10:41.594Z,102165.48
2023-02-15T00:13:11.545Z,102169.27
2023-02-15T00:16:19.722Z,102168.67
2023-02-15T00:19:47.518Z,102173.08
2023-02-15T00:23:15.362Z,102169.77
2023-02-15T00:26:23.975Z,102168.09
2023-02-15T00:29:47.852Z,102169.12
2023-02-15T00:33:04.189Z,102169.59
2023-02-15T00:36:14.065Z,102172.25
2023-02-15T00:39:42.022Z,102173.75
2023-02-15T00:43:09.838Z,102171.07
2023-02-15T00:46:21.540Z,102173.70
2023-02-15T00:49:49.488Z,102172.27
2023-02-15T00:53:17.500Z,102173.05
2023-02-15T00:56:29.605Z,102164.20
2023-02-15T00:59:58.034Z,102168.05
2023-02-15T01:03:25.811Z,102164.58
2023-02-15T01:06:14.966Z,102159.52
2023-02-15T01:09:43.496Z,102157.36
2023-02-15T01:12:55.388Z,102159.16
2023-02-15T01:16:03.996Z,102160.24
2023-02-15T01:19:13.941Z,102159.23
2023-02-15T01:22:25.701Z,102160.59
2023-02-15T01:25:53.771Z,102158.30
2023-02-15T01:29:01.307Z,102155.52
2023-02-15T01:32:11.251Z,102156.27
2023-02-15T01:35:39.392Z,102152.84
2023-02-15T01:38:48.630Z,102152.70
2023-02-15T01:42:16.414Z,102150.98
2023-02-15T01:45:44.558Z,102151.97
2023-02-15T01:48:56.266Z,102149.23
2023-02-15T01:52:24.029Z,102152.19
2023-02-15T01:55:51.807Z,102157.15
2023-02-15T01:59:19.666Z,102152.85
2023-02-15T02:02:43.043Z,102149.38
2023-02-15T02:06:10.641Z,102155.73
2023-02-15T02:09:38.447Z,102158.29
2023-02-15T02:12:27.617Z,102154.84
2023-02-15T02:15:36.211Z,102158.27
2023-02-15T02:19:04.325Z,102155.19
2023-02-15T02:22:32.076Z,102153.80
2023-02-15T02:26:00.411Z,102155.03
2023-02-15T02:29:28.024Z,102154.36
2023-02-15T02:32:35.918Z,102154.67
2023-02-15T02:36:04.003Z,102155.45
2023-02-15T02:39:31.924Z,102155.70
2023-02-15T02:42:59.666Z,102156.65
2023-02-15T02:46:27.675Z,102158.33
2023-02-15T02:49:55.683Z,102149.30
2023-02-15T02:53:19.959Z,102147.58
2023-02-15T02:56:47.879Z,102142.65
2023-02-15T02:59:59.710Z,102146.08
2023-02-15T03:02:49.298Z,102145.15
2023-02-15T03:06:05.216Z,102141.80
2023-02-15T03:09:33.011Z,102142.73
2023-02-15T03:13:00.872Z,102142.64
2023-02-15T03:16:05.412Z,102138.48
2023-02-15T03:19:33.283Z,102140.30
2023-02-15T03:22:41.950Z,102140.23
2023-02-15T03:26:09.965Z,102141.30
2023-02-15T03:29:37.867Z,102140.09
2023-02-15T03:33:05.590Z,102146.20
2023-02-15T03:36:33.518Z,102152.34
2023-02-15T03:39:49.396Z,102155.10
2023-02-15T03:43:17.291Z,102155.73
2023-02-15T03:46:26.221Z,102151.88
2023-02-15T03:49:36.445Z,102156.75
2023-02-15T03:53:04.200Z,102159.26
2023-02-15T03:56:32.306Z,102159.91
2023-02-15T03:59:40.670Z,102155.87
2023-02-15T04:02:49.803Z,102155.23
2023-02-15T04:06:17.721Z,102151.48
2023-02-15T04:09:25.532Z,102151.98
2023-02-15T04:12:33.493Z,102153.95
2023-02-15T04:16:01.930Z,102155.77
2023-02-15T04:19:29.356Z,102153.55
2023-02-15T04:22:37.996Z,102156.46
2023-02-15T04:25:53.747Z,102159.72
2023-02-15T04:29:03.331Z,102163.27
2023-02-15T04:32:31.303Z,102161.91
2023-02-15T04:35:23.977Z,102162.16
2023-02-15T04:38:35.561Z,102164.48
2023-02-15T04:42:03.666Z,102163.30
2023-02-15T04:45:31.358Z,102163.67
2023-02-15T04:48:42.050Z,102165.82
2023-02-15T04:51:51.844Z,102161.62
2023-02-15T04:55:03.775Z,102162.02
2023-02-15T04:58:13.987Z,102163.28
2023-02-15T05:01:02.528Z,102168.45
2023-02-15T05:04:30.310Z,102167.94
2023-02-15T05:07:58.375Z,102169.03
2023-02-15T05:11:26.320Z,102166.02
2023-02-15T05:14:54.050Z,102169.89
2023-02-15T05:17:47.191Z,102169.89
2023-02-15T05:20:54.956Z,102172.70
2023-02-15T05:24:23.324Z,102179.64
2023-02-15T05:27:31.788Z,102175.23
2023-02-15T05:30:59.783Z,102180.92
2023-02-15T05:34:27.455Z,102180.95
2023-02-15T05:37:55.332Z,102180.23
2023-02-15T05:41:04.953Z,102184.64
2023-02-15T05:44:32.922Z,102192.08
2023-02-15T05:48:01.388Z,102194.75
2023-02-15T05:51:29.334Z,102194.41
2023-02-15T05:54:57.176Z,102202.70
2023-02-15T05:58:25.259Z,102206.08
2023-02-15T06:01:53.564Z,102212.45
2023-02-15T06:05:21.608Z,102214.41
2023-02-15T06:08:45.477Z,102218.48
2023-02-15T06:12:13.558Z,102216.19
2023-02-15T06:15:41.349Z,102219.37
2023-02-15T06:18:53.434Z,102228.38
2023-02-15T06:22:00.439Z,102226.60
2023-02-15T06:25:28.461Z,102229.09
2023-02-15T06:28:36.358Z,102231.04
2023-02-15T06:32:04.202Z,102232.24
2023-02-15T06:35:31.964Z,102231.20
2023-02-15T06:38:47.857Z,102228.20
2023-02-15T06:42:15.527Z,102230.49
2023-02-15T06:45:43.290Z,102231.55
2023-02-15T06:48:32.386Z,102239.31
2023-02-15T06:52:00.266Z,102239.66
2023-02-15T06:55:28.692Z,102242.31
2023-02-15T06:58:57.366Z,102240.90
2023-02-15T07:02:25.445Z,102235.23
2023-02-15T07:05:14.702Z,102238.75
2023-02-15T07:08:07.120Z,102239.96
2023-02-15T07:11:34.948Z,102241.51
2023-02-15T07:14:44.124Z,102242.56
2023-02-15T07:18:12.114Z,102245.94
2023-02-15T07:21:40.254Z,102243.98
2023-02-15T07:24:36.326Z,102249.63
2023-02-15T07:28:04.255Z,102252.79
2023-02-15T07:31:33.086Z,102248.86
2023-02-15T07:35:00.826Z,102252.73
2023-02-15T07:38:16.832Z,102247.18
2023-02-15T07:41:40.308Z,102249.38
2023-02-15T07:45:04.451Z,102244.02
2023-02-15T07:48:12.691Z,102245.86
2023-02-15T07:51:29.302Z,102247.73
2023-02-15T07:54:45.089Z,102246.59
2023-02-15T07:57:53.441Z,102247.39
2023-02-15T08:01:16.845Z,102249.46
2023-02-15T08:04:44.883Z,102242.91
2023-02-15T08:07:41.190Z,102244.51
2023-02-15T08:10:48.685Z,102244.63
2023-02-15T08:13:54.705Z,102244.59
2023-02-15T08:17:03.100Z,102244.56
2023-02-15T08:20:19.304Z,102238.89
2023-02-15T08:23:47.431Z,102241.19
2023-02-15T08:27:15.573Z,102235.02
2023-02-15T08:30:03.947Z,102233.19
2023-02-15T08:33:00.300Z,102231.39
2023-02-15T08:36:08.530Z,102231.23
2023-02-15T08:38:46.435Z,102230.61
2023-02-15T08:41:35.159Z,102231.16
2023-02-15T08:44:05.125Z,102228.13
2023-02-15T08:46:53.204Z,102228.02
2023-02-15T08:49:39.852Z,102228.61
2023-02-15T08:52:26.861Z,102226.11
2023-02-15T08:55:00.197Z,102226.38
2023-02-15T08:57:29.793Z,102226.04
2023-02-15T09:00:20.373Z,102226.67
2023-02-15T09:02:58.464Z,102229.42
2023-02-15T09:05:31.102Z,102234.29
2023-02-15T09:08:19.425Z,102235.00
2023-02-15T09:10:48.672Z,102235.33
2023-02-15T09:13:19.286Z,102232.33
2023-02-15T09:15:48.483Z,102227.94
2023-02-15T09:18:19.529Z,102226.40
2023-02-15T09:20:49.075Z,102232.09
2023-02-15T09:23:26.904Z,102231.75
2023-02-15T09:26:18.972Z,102233.72
2023-02-15T09:29:10.026Z,102232.96
2023-02-15T09:31:39.334Z,102228.32
2023-02-15T09:34:11.516Z,102226.11
2023-02-15T09:36:59.421Z,102228.94
2023-02-15T09:40:10.948Z,102226.52
2023-02-15T09:43:19.734Z,102219.63
2023-02-15T09:46:09.784Z,102218.59
2023-02-15T09:49:08.926Z,102214.96
2023-02-15T09:51:42.315Z,102210.33
2023-02-15T09:54:11.352Z,102207.78
2023-02-15T09:56:55.990Z,102207.75
2023-02-15T09:59:48.133Z,102201.89
2023-02-15T10:02:32.026Z,102201.98
2023-02-15T10:05:00.480Z,102198.73
2023-02-15T10:07:35.551Z,102197.09
2023-02-15T10:10:04.269Z,102193.39
2023-02-15T10:12:35.959Z,102191.94
2023-02-15T10:15:06.423Z,102187.00
2023-02-15T10:17:50.655Z,102187.41
2023-02-15T10:20:21.244Z,102185.03
2023-02-15T10:22:50.523Z,102177.05
2023-02-15T10:26:07.146Z,102179.45
2023-02-15T10:28:56.239Z,102178.35
2023-02-15T10:31:45.474Z,102175.77
2023-02-15T10:34:36.499Z,102166.75
2023-02-15T10:37:10.277Z,102164.48
2023-02-15T10:39:39.588Z,102160.75
2023-02-15T10:42:11.507Z,102158.02
2023-02-15T10:45:01.805Z,102159.77
2023-02-15T10:47:34.358Z,102155.95
2023-02-15T10:50:18.341Z,102155.32
2023-02-15T10:52:47.224Z,102152.63
2023-02-15T10:55:22.590Z,102145.80
2023-02-15T10:58:07.502Z,102144.70
2023-02-15T11:01:01.559Z,102139.56
2023-02-15T11:03:31.141Z,102132.77
2023-02-15T11:06:02.340Z,102132.03
2023-02-15T11:08:31.072Z,102133.56
2023-02-15T11:11:27.074Z,102135.75
2023-02-15T11:13:56.200Z,102134.10
2023-02-15T11:16:25.193Z,102127.66
2023-02-15T11:19:00.563Z,102129.05
2023-02-15T11:21:38.507Z,102123.09
2023-02-15T11:24:07.708Z,102122.77
2023-02-15T11:26:38.788Z,102118.05
2023-02-15T11:29:27.595Z,102109.17
2023-02-15T11:31:56.402Z,102106.70
2023-02-15T11:34:25.084Z,102101.56
2023-02-15T11:37:13.003Z,102100.96
2023-02-15T11:39:59.584Z,102097.13
2023-02-15T11:42:35.948Z,102094.39
2023-02-15T11:45:04.845Z,102088.13
2023-02-15T11:47:48.780Z,102093.20
2023-02-15T11:50:17.290Z,102089.66
2023-02-15T11:53:02.908Z,102088.08
2023-02-15T11:55:46.213Z,102086.48
2023-02-15T11:58:29.893Z,102082.77
2023-02-15T12:01:03.974Z,102084.88
2023-02-15T12:04:07.867Z,102080.20
2023-02-15T12:06:37.422Z,102080.02
2023-02-15T12:09:23.445Z,102080.85
2023-02-15T12:11:53.287Z,102076.52
2023-02-15T12:14:27.289Z,102073.06
2023-02-15T12:16:58.833Z,102066.98
2023-02-15T12:19:37.655Z,102061.05
2023-02-15T12:22:09.297Z,102058.66
2023-02-15T12:24:39.046Z,102058.80
2023-02-15T12:27:10.445Z,102059.08
2023-02-15T12:29:39.988Z,102056.21
2023-02-15T12:32:10.943Z,102049.54
2023-02-15T12:34:40.814Z,102048.06
2023-02-15T12:37:09.470Z,102046.59
2023-02-15T12:39:59.022Z,102047.13
2023-02-15T12:42:30.495Z,102043.29
2023-02-15T12:45:19.530Z,102036.27
2023-02-15T12:47:56.316Z,102029.82
2023-02-15T12:50:25.211Z,102032.35
2023-02-15T12:53:15.533Z,102028.38
2023-02-15T12:55:47.273Z,102026.55
2023-02-15T12:58:17.642Z,102027.17
2023-02-15T13:00:49.752Z,102025.38
2023-02-15T13:03:43.179Z,102025.47
2023-02-15T13:06:34.862Z,102023.09
2023-02-15T13:09:04.834Z,102021.59
2023-02-15T13:11:34.052Z,102018.52
2023-02-15T13:14:05.027Z,102017.90
2023-02-15T13:16:48.930Z,102012.42
2023-02-15T13:19:23.586Z,102010.66
2023-02-15T13:22:08.012Z,102008.00
2023-02-15T13:24:37.038Z,102007.42
2023-02-15T13:27:26.873Z,102004.08
2023-02-15T13:29:56.447Z,101999.89
2023-02-15T13:32:28.476Z,101995.79
2023-02-15T13:34:59.031Z,101993.73
2023-02-15T13:37:48.811Z,101989.31
2023-02-15T13:40:37.172Z,101990.74
2023-02-15T13:43:13.442Z,101992.89
2023-02-15T13:45:42.419Z,101992.69
2023-02-15T13:48:12.623Z,101992.61
2023-02-15T13:50:40.560Z,101989.23
2023-02-15T13:53:10.720Z,101993.40
2023-02-15T13:55:38.713Z,101993.04
2023-02-15T13:58:14.901Z,101991.49
2023-02-15T14:00:45.569Z,101992.27
2023-02-15T14:03:21.104Z,101989.41
2023-02-15T14:05:49.301Z,101990.77
2023-02-15T14:08:18.401Z,101984.45
2023-02-15T14:10:46.697Z,101984.98
2023-02-15T14:13:15.621Z,101982.95
2023-02-15T14:15:48.058Z,101984.01
2023-02-15T14:18:19.178Z,101985.77
2023-02-15T14:20:47.764Z,101989.21
2023-02-15T14:23:17.283Z,101987.20
2023-02-15T14:25:47.371Z,101987.27
2023-02-15T14:28:37.347Z,101984.36
2023-02-15T14:31:14.531Z,101982.51
2023-02-15T14:34:02.714Z,101979.73
2023-02-15T14:36:32.177Z,101983.38
2023-02-15T14:39:00.260Z,101977.44
2023-02-15T14:41:29.993Z,101984.31
2023-02-15T14:44:19.523Z,101987.83
2023-02-15T14:47:04.206Z,101980.63
2023-02-15T14:49:52.325Z,101984.48
2023-02-15T14:52:22.220Z,101983.20
2023-02-15T14:54:50.137Z,101981.27
2023-02-15T14:57:58.192Z,101984.05
2023-02-15T15:00:28.910Z,101984.65
2023-02-15T15:02:58.906Z,101983.81
2023-02-15T15:05:29.139Z,101986.09
2023-02-15T15:08:17.279Z,101984.34
2023-02-15T15:10:46.612Z,101982.36
2023-02-15T15:13:33.694Z,101981.63
2023-02-15T15:16:02.209Z,101985.70
2023-02-15T15:18:35.065Z,101984.83
2023-02-15T15:21:07.943Z,101982.02
2023-02-15T15:24:11.788Z,101976.95
2023-02-15T15:27:04.193Z,101973.05
2023-02-15T15:29:38.342Z,101969.39
2023-02-15T15:32:12.330Z,101969.47
2023-02-15T15:34:42.229Z,101967.47
2023-02-15T15:37:18.836Z,101964.52
2023-02-15T15:40:07.961Z,101964.27
2023-02-15T15:42:45.473Z,101960.66
2023-02-15T15:45:17.082Z,101963.66
2023-02-15T15:48:05.241Z,101964.82
2023-02-15T15:50:36.712Z,101962.88
2023-02-15T15:53:26.768Z,101966.55
2023-02-15T15:55:58.133Z,101965.98
2023-02-15T15:58:45.531Z,101969.58
2023-02-15T16:01:15.823Z,101968.90
2023-02-15T16:03:57.007Z,101973.55
2023-02-15T16:06:45.388Z,101976.46
2023-02-15T16:09:29.726Z,101975.27
2023-02-15T16:12:00.510Z,101974.98
2023-02-15T16:14:48.753Z,101976.61
2023-02-15T16:17:20.819Z,101980.10
2023-02-15T16:19:49.250Z,101982.69
2023-02-15T16:22:19.935Z,101981.09
2023-02-15T16:24:50.247Z,101981.19
2023-02-15T16:27:38.605Z,101981.08
2023-02-15T16:30:14.843Z,101981.79
2023-02-15T16:32:43.149Z,101983.61
2023-02-15T16:35:31.082Z,101983.05
2023-02-15T16:38:05.043Z,101982.33
2023-02-15T16:40:33.379Z,101985.60
2023-02-15T16:43:23.330Z,101986.70
2023-02-15T16:45:52.478Z,101986.75
2023-02-15T16:48:36.280Z,101991.11
2023-02-15T16:51:09.991Z,101986.59
2023-02-15T16:53:41.370Z,101985.83
2023-02-15T16:56:10.872Z,101987.39
2023-02-15T16:58:48.404Z,101990.14
2023-02-15T17:01:18.001Z,101986.46
2023-02-15T17:03:46.737Z,101987.98
2023-02-15T17:06:22.448Z,101990.67
2023-02-15T17:08:55.458Z,101984.52
2023-02-15T17:11:46.193Z,101983.73
2023-02-15T17:14:14.728Z,101983.65
2023-02-15T17:16:44.961Z,101983.00
2023-02-15T17:19:14.240Z,101983.80
2023-02-15T17:21:44.820Z,101981.88
2023-02-15T17:24:13.705Z,101985.19
2023-02-15T17:26:42.341Z,101987.57
2023-02-15T17:29:12.796Z,101991.57
2023-02-15T17:31:46.113Z,101991.14
2023-02-15T17:34:17.257Z,101988.26
2023-02-15T17:36:46.002Z,101988.75
2023-02-15T17:39:36.753Z,101989.69
2023-02-15T17:42:05.670Z,101985.92
2023-02-15T17:44:36.894Z,101986.95
2023-02-15T17:47:04.751Z,101986.34
2023-02-15T17:49:34.167Z,101987.23
2023-02-15T17:52:03.865Z,101986.33
2023-02-15T17:54:31.880Z,101991.54
2023-02-15T17:57:04.102Z,101992.98
2023-02-15T17:59:34.948Z,101990.42
2023-02-15T18:02:42.982Z,101991.36
2023-02-15T18:05:11.232Z,101992.05
2023-02-15T18:07:39.299Z,101989.84
2023-02-15T18:10:07.269Z,101987.30
2023-02-15T18:12:59.815Z,101982.55
2023-02-15T18:16:03.892Z,101980.98
2023-02-15T18:18:41.211Z,101982.23
2023-02-15T18:21:12.204Z,101982.35
2023-02-15T18:23:41.666Z,101983.59
2023-02-15T18:26:25.821Z,101985.29
2023-02-15T18:28:57.031Z,101984.02
2023-02-15T18:31:29.654Z,101985.77
2023-02-15T18:33:58.229Z,101979.67
2023-02-15T18:36:54.621Z,101976.94
2023-02-15T18:39:43.107Z,101981.81
2023-02-15T18:42:13.841Z,101979.64
2023-02-15T18:44:50.264Z,101982.34
2023-02-15T18:47:20.490Z,101984.76
2023-02-15T18:50:12.559Z,101982.96
2023-02-15T18:52:45.751Z,101976.95
2023-02-15T18:55:49.550Z,101978.06
2023-02-15T18:58:26.851Z,101973.99
2023-02-15T19:01:03.403Z,101974.77
2023-02-15T19:03:33.682Z,101975.06
2023-02-15T19:06:17.999Z,101976.30
2023-02-15T19:08:49.083Z,101979.73
2023-02-15T19:11:18.800Z,101979.48
2023-02-15T19:13:51.073Z,101976.50
2023-02-15T19:16:19.279Z,101985.83
2023-02-15T19:18:51.992Z,101985.34
2023-02-15T19:21:28.438Z,101983.19
2023-02-15T19:24:19.564Z,101981.91
2023-02-15T19:26:48.397Z,101980.76
2023-02-15T19:29:38.195Z,101981.75
2023-02-15T19:32:35.695Z,101980.45
2023-02-15T19:35:12.393Z,101980.00
2023-02-15T19:37:42.955Z,101980.08
2023-02-15T19:40:34.534Z,101980.81
2023-02-15T19:43:26.043Z,101977.99
2023-02-15T19:45:55.587Z,101978.55
2023-02-15T19:48:24.200Z,101973.98
2023-02-15T19:50:54.485Z,101971.16
2023-02-15T19:53:43.414Z,101972.95
2023-02-15T19:56:27.235Z,101972.69
2023-02-15T19:58:56.451Z,101969.90
2023-02-15T20:01:33.858Z,101969.61
2023-02-15T20:04:22.847Z,101973.95
2023-02-15T20:07:01.486Z,101972.96
2023-02-15T20:09:50.885Z,101971.39
2023-02-15T20:12:41.143Z,101967.72
2023-02-15T20:15:13.601Z,101967.72
2023-02-15T20:17:43.076Z,101966.53
2023-02-15T20:20:14.602Z,101964.95
2023-02-15T20:23:03.987Z,101964.98
2023-02-15T20:26:10.046Z,101961.52
2023-02-15T20:28:39.660Z,101955.00
2023-02-15T20:31:55.296Z,101957.46
2023-02-15T20:34:27.124Z,101955.39
2023-02-15T20:37:16.364Z,101955.59
2023-02-15T20:39:47.729Z,101955.65
2023-02-15T20:42:18.080Z,101955.37
2023-02-15T20:44:51.856Z,101955.20
2023-02-15T20:47:27.314Z,101947.61
2023-02-15T20:50:04.790Z,101950.52
2023-02-15T20:52:53.881Z,101947.37
2023-02-15T20:55:22.550Z,101947.88
2023-02-15T20:58:10.585Z,101950.98
2023-02-15T21:01:00.259Z,101951.21
2023-02-15T21:03:49.891Z,101951.06
2023-02-15T21:06:27.312Z,101952.18
2023-02-15T21:08:59.365Z,101952.75
2023-02-15T21:12:07.124Z,101951.71
2023-02-15T21:14:35.943Z,101952.41
2023-02-15T21:17:12.298Z,101949.59
2023-02-15T21:19:49.934Z,101950.11
2023-02-15T21:22:38.996Z,101946.70
2023-02-15T21:25:27.859Z,101947.53
2023-02-15T21:28:35.561Z,101946.83
2023-02-15T21:31:05.090Z,101947.35
2023-02-15T21:33:42.814Z,101949.43
2023-02-15T21:36:14.332Z,101947.60
2023-02-15T21:39:03.429Z,101947.56
2023-02-15T21:42:08.344Z,101946.14
2023-02-15T21:44:37.837Z,101945.56
2023-02-15T21:47:14.467Z,101947.83
2023-02-15T21:49:50.079Z,101946.39
2023-02-15T21:52:19.748Z,101947.94
2023-02-15T21:54:47.467Z,101941.45
2023-02-15T21:57:16.361Z,101942.79
2023-02-15T21:59:47.450Z,101941.25
2023-02-15T22:02:18.118Z,101941.11
2023-02-15T22:05:17.421Z,101942.38
2023-02-15T22:08:03.864Z,101937.86
2023-02-15T22:10:32.603Z,101941.36
2023-02-15T22:13:28.891Z,101938.45
2023-02-15T22:15:58.961Z,101937.63
2023-02-15T22:19:02.715Z,101936.96
2023-02-15T22:21:50.500Z,101935.12
2023-02-15T22:24:19.684Z,101938.13
2023-02-15T22:27:09.238Z,101940.16
2023-02-15T22:29:58.269Z,101938.25
2023-02-15T22:32:38.479Z,101936.68
2023-02-15T22:35:09.713Z,101937.50
2023-02-15T22:37:57.479Z,101939.48
2023-02-15T22:40:45.503Z,101938.25
2023-02-15T22:43:16.598Z,101942.64
2023-02-15T22:45:50.651Z,101943.63
2023-02-15T22:48:19.789Z,101943.32
2023-02-15T22:51:00.481Z,101945.25
2023-02-15T22:53:30.349Z,101945.79
2023-02-15T22:56:23.300Z,101942.69
2023-02-15T22:59:20.111Z,101948.42
2023-02-15T23:02:29.229Z,101951.41
2023-02-15T23:05:02.007Z,101948.77
2023-02-15T23:07:51.973Z,101948.98
2023-02-15T23:10:40.151Z,101954.57
2023-02-15T23:13:10.768Z,101954.58
2023-02-15T23:15:39.721Z,101947.66
2023-02-15T23:18:11.756Z,101949.64
2023-02-15T23:21:02.626Z,101954.41
2023-02-15T23:23:31.775Z,101951.06
2023-02-15T23:26:24.415Z,101954.16
2023-02-15T23:29:15.171Z,101954.12
2023-02-15T23:31:43.667Z,101955.27
2023-02-15T23:34:21.571Z,101948.37
2023-02-15T23:36:55.444Z,101944.53
2023-02-15T23:39:32.359Z,101946.35
2023-02-15T23:42:00.756Z,101946.55
2023-02-15T23:44:50.641Z,101947.31
2023-02-15T23:47:35.355Z,101941.85
2023-02-15T23:50:12.084Z,101940.46
2023-02-15T23:52:40.832Z,101940.84
2023-02-15T23:55:48.570Z,101939.16
2023-02-15T23:58:38.028Z,101939.02
